sensor_id;sensor_type;location;lat;lon;timestamp;P1;P4;P2;P0;N10;N4;N25;N1;N05;TS
60286;SPS30;46141;52.382;5.270;2023-02-01T00:00:59;2.45;2.38;2.05;1.55;12.42;12.41;12.30;11.82;9.82;0.75
60286;SPS30;46141;52.382;5.270;2023-02-01T00:03:30;2.29;2.22;1.89;1.40;11.27;11.25;11.15;10.67;8.82;0.75
60286;SPS30;46141;52.382;5.270;2023-02-01T00:05:57;2.51;2.44;2.10;1.58;12.71;12.69;12.59;12.09;10.05;0.74
60286;SPS30;46141;52.382;5.270;2023-02-01T00:08:23;2.35;2.29;1.97;1.50;12.04;12.03;11.93;11.47;9.56;0.74
60286;SPS30;46141;52.382;5.270;2023-02-01T00:10:57;2.23;2.16;1.84;1.35;10.88;10.86;10.76;10.29;8.49;0.76
60286;SPS30;46141;52.382;5.270;2023-02-01T00:13:30;2.47;2.39;2.03;1.50;12.07;12.05;11.94;11.42;9.42;0.78
60286;SPS30;46141;52.382;5.270;2023-02-01T00:16:08;2.46;2.38;1.99;1.44;11.56;11.54;11.43;10.87;8.90;0.80
60286;SPS30;46141;52.382;5.270;2023-02-01T00:18:41;2.51;2.43;2.04;1.47;11.82;11.80;11.68;11.11;9.09;0.79
60286;SPS30;46141;52.382;5.270;2023-02-01T00:21:09;2.69;2.61;2.21;1.63;13.09;13.08;12.95;12.38;10.20;0.77
60286;SPS30;46141;52.382;5.270;2023-02-01T00:23:37;2.52;2.45;2.10;1.58;12.72;12.70;12.60;12.09;10.04;0.74
60286;SPS30;46141;52.382;5.270;2023-02-01T00:26:05;2.27;2.21;1.93;1.49;11.93;11.92;11.83;11.41;9.54;0.72
60286;SPS30;46141;52.382;5.270;2023-02-01T00:28:32;2.43;2.37;2.08;1.62;13.04;13.02;12.93;12.50;10.49;0.71
60286;SPS30;46141;52.382;5.270;2023-02-01T00:33:34;2.48;2.42;2.12;1.64;13.20;13.19;13.09;12.64;10.60;0.72
60286;SPS30;46141;52.382;5.270;2023-02-01T00:36:03;2.45;2.39;2.07;1.59;12.76;12.74;12.64;12.18;10.17;0.75
60286;SPS30;46141;52.382;5.270;2023-02-01T00:38:32;2.98;2.90;2.48;1.85;14.90;14.88;14.75;14.14;11.72;0.77
60286;SPS30;46141;52.382;5.270;2023-02-01T00:41:05;2.62;2.55;2.20;1.68;13.48;13.46;13.35;12.85;10.70;0.75
60286;SPS30;46141;52.382;5.270;2023-02-01T00:43:37;2.28;2.22;1.93;1.49;11.96;11.95;11.86;11.44;9.57;0.74
60286;SPS30;46141;52.382;5.270;2023-02-01T00:46:04;2.74;2.67;2.30;1.75;14.03;14.01;13.90;13.36;11.12;0.75
60286;SPS30;46141;52.382;5.270;2023-02-01T00:48:30;2.59;2.51;2.14;1.59;12.83;12.81;12.70;12.16;10.06;0.76
60286;SPS30;46141;52.382;5.270;2023-02-01T00:51:00;2.72;2.65;2.28;1.74;13.96;13.94;13.83;13.31;11.08;0.75
60286;SPS30;46141;52.382;5.270;2023-02-01T00:53:27;2.84;2.76;2.36;1.76;14.16;14.14;14.02;13.43;11.12;0.77
60286;SPS30;46141;52.382;5.270;2023-02-01T00:55:53;2.67;2.59;2.20;1.62;13.01;12.99;12.87;12.30;10.14;0.78
60286;SPS30;46141;52.382;5.270;2023-02-01T00:58:19;3.20;3.10;2.60;1.88;15.11;15.09;14.94;14.22;11.65;0.80
60286;SPS30;46141;52.382;5.270;2023-02-01T01:00:44;2.96;2.87;2.37;1.67;13.45;13.43;13.28;12.58;10.21;0.81
60286;SPS30;46141;52.382;5.270;2023-02-01T01:03:11;2.76;2.67;2.21;1.56;12.57;12.54;12.41;11.75;9.55;0.81
60286;SPS30;46141;52.382;5.270;2023-02-01T01:10:54;3.04;2.94;2.41;1.67;13.47;13.44;13.29;12.54;10.13;0.81
60286;SPS30;46141;52.382;5.270;2023-02-01T01:13:20;3.33;3.22;2.67;1.88;15.18;15.15;14.99;14.20;11.55;0.79
60286;SPS30;46141;52.382;5.270;2023-02-01T01:15:46;3.37;3.26;2.70;1.89;15.26;15.23;15.06;14.26;11.57;0.80
60286;SPS30;46141;52.382;5.270;2023-02-01T01:18:12;3.06;2.96;2.45;1.72;13.84;13.82;13.67;12.93;10.50;0.81
60286;SPS30;46141;52.382;5.270;2023-02-01T01:20:39;3.40;3.28;2.65;1.77;14.30;14.27;14.08;13.19;10.51;0.84
60286;SPS30;46141;52.382;5.270;2023-02-01T01:23:06;3.55;3.43;2.80;1.91;15.39;15.36;15.17;14.27;11.46;0.82
60286;SPS30;46141;52.382;5.270;2023-02-01T01:25:40;3.38;3.26;2.64;1.78;14.38;14.35;14.17;13.29;10.62;0.83
60286;SPS30;46141;52.382;5.270;2023-02-01T01:28:06;3.38;3.26;2.63;1.76;14.22;14.19;14.01;13.12;10.46;0.84
60286;SPS30;46141;52.382;5.270;2023-02-01T01:33:07;3.41;3.29;2.68;1.83;14.75;14.73;14.54;13.68;10.98;0.81
60286;SPS30;46141;52.382;5.270;2023-02-01T01:35:33;3.29;3.18;2.63;1.85;14.90;14.88;14.71;13.93;11.31;0.78
60286;SPS30;46141;52.382;5.270;2023-02-01T01:38:00;3.20;3.10;2.58;1.83;14.78;14.75;14.60;13.85;11.29;0.78
60286;SPS30;46141;52.382;5.270;2023-02-01T01:48:24;3.38;3.27;2.69;1.87;15.05;15.02;14.85;14.02;11.33;0.81
60286;SPS30;46141;52.382;5.270;2023-02-01T01:53:23;2.83;2.74;2.28;1.63;13.12;13.09;12.96;12.30;10.04;0.78
60286;SPS30;46141;52.382;5.270;2023-02-01T01:55:54;3.00;2.90;2.40;1.70;13.66;13.64;13.49;12.78;10.39;0.78
60286;SPS30;46141;52.382;5.270;2023-02-01T01:58:23;3.62;3.50;2.92;2.08;16.74;16.71;16.53;15.70;12.80;0.79
60286;SPS30;46141;52.382;5.270;2023-02-01T02:00:53;3.48;3.36;2.76;1.91;15.43;15.40;15.22;14.36;11.60;0.82
60286;SPS30;46141;52.382;5.270;2023-02-01T02:03:20;3.75;3.62;2.97;2.06;16.58;16.55;16.36;15.43;12.46;0.82
60286;SPS30;46141;52.382;5.270;2023-02-01T02:05:53;3.72;3.60;2.96;2.05;16.56;16.53;16.34;15.43;12.47;0.81
60286;SPS30;46141;52.382;5.270;2023-02-01T02:08:24;3.21;3.11;2.60;1.85;14.93;14.90;14.75;14.01;11.44;0.79
60286;SPS30;46141;52.382;5.270;2023-02-01T02:10:52;2.92;2.83;2.38;1.73;13.92;13.90;13.76;13.11;10.76;0.78
60286;SPS30;46141;52.382;5.270;2023-02-01T02:13:34;3.44;3.33;2.76;1.95;15.72;15.69;15.52;14.71;11.96;0.78
60286;SPS30;46141;52.382;5.270;2023-02-01T02:16:20;3.49;3.38;2.81;1.99;16.07;16.04;15.87;15.06;12.27;0.77
60286;SPS30;46141;52.382;5.270;2023-02-01T02:36:08;3.36;3.25;2.72;1.95;15.69;15.67;15.51;14.74;12.05;0.78
60286;SPS30;46141;52.382;5.270;2023-02-01T02:39:07;3.42;3.32;2.78;2.00;16.09;16.06;15.90;15.13;12.38;0.77
60286;SPS30;46141;52.382;5.270;2023-02-01T02:45:09;3.49;3.38;2.82;2.02;16.24;16.21;16.04;15.24;12.44;0.79
60286;SPS30;46141;52.382;5.270;2023-02-01T02:48:20;3.37;3.26;2.72;1.94;15.61;15.58;15.42;14.64;11.94;0.79
60286;SPS30;46141;52.382;5.270;2023-02-01T02:51:07;3.34;3.23;2.68;1.89;15.21;15.18;15.01;14.22;11.56;0.79
60286;SPS30;46141;52.382;5.270;2023-02-01T02:56:52;4.14;3.99;3.26;2.23;18.03;18.00;17.78;16.74;13.46;0.79
60286;SPS30;46141;52.382;5.270;2023-02-01T02:59:39;3.30;3.18;2.59;1.76;14.17;14.15;13.97;13.12;10.52;0.82
60286;SPS30;46141;52.382;5.270;2023-02-01T03:02:27;3.91;3.77;3.07;2.09;16.86;16.82;16.62;15.62;12.53;0.81
60286;SPS30;46141;52.382;5.270;2023-02-01T03:05:12;3.71;3.58;2.91;1.98;16.00;15.97;15.78;14.83;11.90;0.81
60286;SPS30;46141;52.382;5.270;2023-02-01T03:13:02;3.71;3.57;2.90;1.95;15.73;15.69;15.49;14.53;11.61;0.80
60286;SPS30;46141;52.382;5.270;2023-02-01T03:15:39;3.66;3.54;2.91;2.01;16.22;16.19;16.00;15.09;12.19;0.79
60286;SPS30;46141;52.382;5.270;2023-02-01T03:18:20;3.54;3.42;2.82;1.97;15.91;15.88;15.70;14.85;12.03;0.79
60286;SPS30;46141;52.382;5.270;2023-02-01T03:20:58;3.63;3.52;2.97;2.17;17.49;17.47;17.30;16.51;13.59;0.76
60286;SPS30;46141;52.382;5.270;2023-02-01T03:23:30;3.41;3.31;2.80;2.06;16.61;16.58;16.43;15.70;12.95;0.76
60286;SPS30;46141;52.382;5.270;2023-02-01T03:26:00;3.44;3.33;2.79;2.00;16.13;16.10;15.94;15.16;12.40;0.78
60286;SPS30;46141;52.382;5.270;2023-02-01T03:28:29;3.41;3.31;2.77;2.00;16.08;16.06;15.89;15.12;12.38;0.77
60286;SPS30;46141;52.382;5.270;2023-02-01T03:31:00;3.59;3.47;2.88;2.04;16.42;16.39;16.22;15.37;12.51;0.79
60286;SPS30;46141;52.382;5.270;2023-02-01T03:33:27;3.96;3.83;3.14;2.17;17.51;17.48;17.28;16.29;13.15;0.79
60286;SPS30;46141;52.382;5.270;2023-02-01T03:38:27;3.83;3.70;3.02;2.07;16.73;16.70;16.50;15.54;12.51;0.78
60286;SPS30;46141;52.382;5.270;2023-02-01T03:43:40;3.89;3.76;3.06;2.09;16.84;16.81;16.60;15.61;12.53;0.78
60286;SPS30;46141;52.382;5.270;2023-02-01T03:46:16;3.98;3.83;3.10;2.08;16.78;16.75;16.53;15.49;12.36;0.80
60286;SPS30;46141;52.382;5.270;2023-02-01T03:48:50;4.11;3.96;3.21;2.16;17.43;17.40;17.17;16.10;12.87;0.80
60286;SPS30;46141;52.382;5.270;2023-02-01T03:51:19;3.64;3.50;2.84;1.91;15.44;15.41;15.21;14.27;11.40;0.81
60286;SPS30;46141;52.382;5.270;2023-02-01T03:53:47;3.73;3.60;2.95;2.02;16.29;16.26;16.06;15.12;12.17;0.80
60286;SPS30;46141;52.382;5.270;2023-02-01T03:56:15;4.16;4.01;3.25;2.20;17.72;17.69;17.46;16.38;13.11;0.81
60286;SPS30;46141;52.382;5.270;2023-02-01T03:58:46;4.18;4.03;3.30;2.26;18.26;18.22;18.00;16.96;13.65;0.78
60286;SPS30;46141;52.382;5.270;2023-02-01T04:01:23;3.98;3.84;3.15;2.17;17.48;17.45;17.24;16.25;13.10;0.80
60286;SPS30;46141;52.382;5.270;2023-02-01T04:03:51;3.54;3.42;2.84;2.01;16.16;16.13;15.96;15.13;12.30;0.78
60286;SPS30;46141;52.382;5.270;2023-02-01T04:06:21;3.23;3.13;2.64;1.92;15.49;15.46;15.32;14.61;12.01;0.77
60286;SPS30;46141;52.382;5.270;2023-02-01T04:08:48;3.50;3.38;2.81;2.00;16.08;16.05;15.88;15.06;12.26;0.79
60286;SPS30;46141;52.382;5.270;2023-02-01T04:11:14;3.64;3.52;2.91;2.04;16.44;16.41;16.23;15.35;12.46;0.79
60286;SPS30;46141;52.382;5.270;2023-02-01T04:13:40;3.71;3.59;3.01;2.17;17.46;17.43;17.25;16.42;13.44;0.77
60286;SPS30;46141;52.382;5.270;2023-02-01T04:16:06;3.40;3.29;2.77;2.01;16.19;16.16;16.00;15.25;12.52;0.78
60286;SPS30;46141;52.382;5.270;2023-02-01T04:18:32;3.76;3.64;3.05;2.19;17.64;17.62;17.44;16.59;13.57;0.79
60286;SPS30;46141;52.382;5.270;2023-02-01T04:20:57;3.19;3.10;2.60;1.88;15.14;15.11;14.96;14.25;11.68;0.78
60286;SPS30;46141;52.382;5.270;2023-02-01T04:23:23;3.33;3.24;2.76;2.05;16.48;16.45;16.31;15.61;12.91;0.75
60286;SPS30;46141;52.382;5.270;2023-02-01T04:25:49;3.35;3.26;2.80;2.10;16.91;16.89;16.74;16.07;13.34;0.75
60286;SPS30;46141;52.382;5.270;2023-02-01T04:28:15;3.15;3.06;2.60;1.91;15.37;15.34;15.20;14.53;11.98;0.77
60286;SPS30;46141;52.382;5.270;2023-02-01T04:30:41;3.43;3.33;2.82;2.06;16.61;16.59;16.43;15.69;12.92;0.78
60286;SPS30;46141;52.382;5.270;2023-02-01T04:33:06;3.25;3.15;2.69;2.00;16.09;16.07;15.93;15.25;12.62;0.77
60286;SPS30;46141;52.382;5.270;2023-02-01T04:35:33;3.49;3.39;2.91;2.19;17.62;17.59;17.45;16.74;13.90;0.76
60286;SPS30;46141;52.382;5.270;2023-02-01T04:38:00;3.13;3.04;2.58;1.89;15.24;15.22;15.08;14.40;11.87;0.77
60286;SPS30;46141;52.382;5.270;2023-02-01T04:40:26;3.47;3.36;2.82;2.04;16.44;16.42;16.25;15.48;12.69;0.77
60286;SPS30;46141;52.382;5.270;2023-02-01T04:42:51;3.40;3.30;2.78;2.02;16.23;16.20;16.04;15.29;12.55;0.76
60286;SPS30;46141;52.382;5.270;2023-02-01T04:45:17;3.38;3.28;2.76;2.00;16.09;16.06;15.90;15.15;12.43;0.76
60286;SPS30;46141;52.382;5.270;2023-02-01T04:47:43;3.18;3.08;2.59;1.87;15.07;15.04;14.89;14.18;11.63;0.77
60286;SPS30;46141;52.382;5.270;2023-02-01T04:50:09;3.12;3.03;2.58;1.92;15.41;15.39;15.26;14.61;12.08;0.74
60286;SPS30;46141;52.382;5.270;2023-02-01T04:52:37;3.43;3.33;2.82;2.07;16.68;16.66;16.51;15.77;13.00;0.76
60286;SPS30;46141;52.382;5.270;2023-02-01T04:55:03;3.62;3.51;2.92;2.08;16.79;16.76;16.59;15.75;12.85;0.78
60286;SPS30;46141;52.382;5.270;2023-02-01T04:57:29;3.61;3.48;2.83;1.93;15.54;15.51;15.32;14.40;11.55;0.81
60286;SPS30;46141;52.382;5.270;2023-02-01T04:59:55;3.87;3.74;3.06;2.10;16.98;16.95;16.74;15.78;12.71;0.81
60286;SPS30;46141;52.382;5.270;2023-02-01T05:02:21;4.15;4.00;3.26;2.22;17.93;17.89;17.67;16.61;13.34;0.82
60286;SPS30;46141;52.382;5.270;2023-02-01T05:04:47;4.13;3.99;3.28;2.27;18.28;18.25;18.04;17.01;13.74;0.82
60286;SPS30;46141;52.382;5.270;2023-02-01T05:07:13;3.73;3.60;2.98;2.10;16.91;16.88;16.69;15.81;12.83;0.81
60286;SPS30;46141;52.382;5.270;2023-02-01T05:09:39;3.84;3.71;3.10;2.21;17.82;17.79;17.61;16.72;13.65;0.80
60286;SPS30;46141;52.382;5.270;2023-02-01T05:12:04;3.80;3.68;3.07;2.20;17.71;17.69;17.51;16.64;13.59;0.77
60286;SPS30;46141;52.382;5.270;2023-02-01T05:14:49;3.51;3.38;2.77;1.90;15.32;15.29;15.11;14.23;11.45;0.79
60286;SPS30;46141;52.382;5.270;2023-02-01T05:17:14;3.82;3.68;2.99;2.02;16.27;16.24;16.03;15.04;12.03;0.81
60286;SPS30;46141;52.382;5.270;2023-02-01T05:19:40;3.96;3.82;3.09;2.08;16.76;16.73;16.51;15.48;12.36;0.81
60286;SPS30;46141;52.382;5.270;2023-02-01T05:22:06;4.17;4.02;3.26;2.19;17.66;17.63;17.40;16.31;13.02;0.81
60286;SPS30;46141;52.382;5.270;2023-02-01T05:24:32;3.92;3.78;3.07;2.08;16.76;16.73;16.51;15.50;12.41;0.80
60286;SPS30;46141;52.382;5.270;2023-02-01T05:26:58;4.08;3.92;3.16;2.10;16.93;16.89;16.67;15.58;12.38;0.81
60286;SPS30;46141;52.382;5.270;2023-02-01T05:29:24;4.29;4.13;3.35;2.25;18.20;18.16;17.93;16.81;13.44;0.82
60286;SPS30;46141;52.382;5.270;2023-02-01T05:31:49;4.17;4.01;3.23;2.14;17.27;17.23;17.00;15.88;12.61;0.83
60286;SPS30;46141;52.382;5.270;2023-02-01T05:34:15;3.96;3.82;3.10;2.10;16.91;16.88;16.67;15.64;12.52;0.83
60286;SPS30;46141;52.382;5.270;2023-02-01T05:36:41;3.62;3.50;2.90;2.05;16.50;16.47;16.29;15.44;12.55;0.81
60286;SPS30;46141;52.382;5.270;2023-02-01T05:39:07;3.51;3.41;2.87;2.10;16.87;16.85;16.69;15.92;13.09;0.78
60286;SPS30;46141;52.382;5.270;2023-02-01T05:41:32;3.80;3.68;3.08;2.22;17.85;17.82;17.64;16.78;13.73;0.78
60286;SPS30;46141;52.382;5.270;2023-02-01T05:43:58;3.82;3.70;3.08;2.20;17.71;17.69;17.50;16.62;13.56;0.77
60286;SPS30;46141;52.382;5.270;2023-02-01T05:46:24;3.56;3.45;2.86;2.02;16.30;16.28;16.10;15.26;12.42;0.78
60286;SPS30;46141;52.382;5.270;2023-02-01T05:48:49;3.85;3.72;3.07;2.14;17.25;17.22;17.02;16.09;13.03;0.80
60286;SPS30;46141;52.382;5.270;2023-02-01T05:51:15;3.46;3.36;2.81;2.02;16.29;16.27;16.10;15.32;12.54;0.77
60286;SPS30;46141;52.382;5.270;2023-02-01T05:53:41;3.60;3.50;2.98;2.20;17.72;17.69;17.54;16.78;13.86;0.75
60286;SPS30;46141;52.382;5.270;2023-02-01T05:56:07;3.75;3.64;3.11;2.31;18.59;18.56;18.40;17.62;14.58;0.74
60286;SPS30;46141;52.382;5.270;2023-02-01T05:58:33;3.15;3.06;2.63;1.98;15.92;15.90;15.77;15.14;12.57;0.73
60286;SPS30;46141;52.382;5.270;2023-02-01T06:00:59;3.21;3.12;2.69;2.05;16.45;16.43;16.30;15.67;13.05;0.73
60286;SPS30;46141;52.382;5.270;2023-02-01T06:03:25;3.50;3.41;2.93;2.21;17.77;17.75;17.60;16.90;14.05;0.74
60286;SPS30;46141;52.382;5.270;2023-02-01T06:05:51;3.42;3.33;2.86;2.15;17.28;17.26;17.11;16.43;13.64;0.74
60286;SPS30;46141;52.382;5.270;2023-02-01T06:08:17;3.71;3.61;3.10;2.33;18.70;18.68;18.52;17.77;14.75;0.74
60286;SPS30;46141;52.382;5.270;2023-02-01T06:10:43;3.54;3.44;2.92;2.14;17.26;17.23;17.08;16.32;13.45;0.76
60286;SPS30;46141;52.382;5.270;2023-02-01T06:13:09;3.50;3.39;2.86;2.08;16.76;16.73;16.57;15.80;12.98;0.76
60286;SPS30;46141;52.382;5.270;2023-02-01T06:15:35;3.64;3.52;2.90;2.01;16.23;16.20;16.02;15.13;12.24;0.79
60286;SPS30;46141;52.382;5.270;2023-02-01T06:18:02;3.71;3.59;2.98;2.10;16.92;16.90;16.71;15.83;12.87;0.77
60286;SPS30;46141;52.382;5.270;2023-02-01T06:20:29;3.55;3.44;2.89;2.08;16.75;16.73;16.56;15.76;12.90;0.77
60286;SPS30;46141;52.382;5.270;2023-02-01T06:22:55;3.30;3.20;2.70;1.96;15.75;15.72;15.57;14.84;12.18;0.76
60286;SPS30;46141;52.382;5.270;2023-02-01T06:25:21;3.38;3.28;2.77;2.02;16.29;16.27;16.12;15.38;12.65;0.76
60286;SPS30;46141;52.382;5.270;2023-02-01T06:27:46;3.60;3.49;2.92;2.10;16.94;16.91;16.74;15.93;13.04;0.78
60286;SPS30;46141;52.382;5.270;2023-02-01T06:30:13;3.27;3.17;2.66;1.92;15.49;15.47;15.31;14.58;11.96;0.78
60286;SPS30;46141;52.382;5.270;2023-02-01T06:32:39;3.37;3.27;2.75;2.00;16.08;16.05;15.90;15.15;12.44;0.79
60286;SPS30;46141;52.382;5.270;2023-02-01T06:35:06;3.35;3.24;2.72;1.95;15.71;15.69;15.53;14.77;12.08;0.80
60286;SPS30;46141;52.382;5.270;2023-02-01T06:37:33;3.59;3.48;2.92;2.11;16.97;16.95;16.78;15.97;13.09;0.79
60286;SPS30;46141;52.382;5.270;2023-02-01T06:39:59;3.37;3.26;2.76;2.01;16.19;16.16;16.01;15.28;12.56;0.78
60286;SPS30;46141;52.382;5.270;2023-02-01T06:42:25;3.35;3.25;2.76;2.04;16.45;16.42;16.28;15.57;12.86;0.77
60286;SPS30;46141;52.382;5.270;2023-02-01T06:44:50;3.42;3.32;2.81;2.08;16.70;16.68;16.53;15.80;13.04;0.76
60286;SPS30;46141;52.382;5.270;2023-02-01T06:47:17;3.38;3.28;2.78;2.05;16.52;16.50;16.35;15.63;12.90;0.73
60286;SPS30;46141;52.382;5.270;2023-02-01T06:49:42;3.44;3.35;2.87;2.16;17.36;17.34;17.19;16.50;13.70;0.72
60286;SPS30;46141;52.382;5.270;2023-02-01T06:52:08;3.00;2.92;2.52;1.92;15.43;15.41;15.29;14.71;12.25;0.71
60286;SPS30;46141;52.382;5.270;2023-02-01T06:54:33;3.00;2.92;2.50;1.87;15.06;15.04;14.91;14.30;11.86;0.71
60286;SPS30;46141;52.382;5.270;2023-02-01T06:57:02;3.26;3.16;2.69;1.99;16.04;16.02;15.88;15.19;12.55;0.72
60286;SPS30;46141;52.382;5.270;2023-02-01T06:59:28;3.07;2.98;2.54;1.88;15.09;15.07;14.93;14.28;11.79;0.73
60286;SPS30;46141;52.382;5.270;2023-02-01T07:01:53;3.55;3.44;2.88;2.08;16.76;16.74;16.57;15.77;12.92;0.75
60286;SPS30;46141;52.382;5.270;2023-02-01T07:04:19;2.96;2.87;2.44;1.80;14.49;14.47;14.34;13.72;11.32;0.74
60286;SPS30;46141;52.382;5.270;2023-02-01T07:06:45;3.39;3.29;2.80;2.07;16.66;16.63;16.49;15.77;13.03;0.75
60286;SPS30;46141;52.382;5.270;2023-02-01T07:09:10;3.02;2.95;2.56;1.97;15.85;15.83;15.71;15.15;12.67;0.72
60286;SPS30;46141;52.382;5.270;2023-02-01T07:11:38;2.82;2.75;2.40;1.86;14.92;14.90;14.80;14.28;11.96;0.72
60286;SPS30;46141;52.382;5.270;2023-02-01T07:14:08;2.89;2.82;2.45;1.88;15.10;15.08;14.96;14.42;12.05;0.73
60286;SPS30;46141;52.382;5.270;2023-02-01T07:16:34;2.62;2.55;2.20;1.69;13.54;13.53;13.42;12.92;10.78;0.73
60286;SPS30;46141;52.382;5.270;2023-02-01T07:19:00;3.16;3.07;2.63;1.97;15.84;15.82;15.69;15.04;12.47;0.73
60286;SPS30;46141;52.382;5.270;2023-02-01T07:21:26;3.14;3.05;2.58;1.89;15.18;15.16;15.02;14.34;11.80;0.75
60286;SPS30;46141;52.382;5.270;2023-02-01T07:23:53;3.41;3.31;2.79;2.03;16.31;16.29;16.13;15.38;12.63;0.75
60286;SPS30;46141;52.382;5.270;2023-02-01T07:26:19;3.21;3.11;2.59;1.85;14.88;14.86;14.70;13.96;11.39;0.77
60286;SPS30;46141;52.382;5.270;2023-02-01T07:28:44;3.66;3.54;2.96;2.11;17.03;17.01;16.83;15.99;13.06;0.78
60286;SPS30;46141;52.382;5.270;2023-02-01T07:31:12;2.99;2.90;2.46;1.80;14.51;14.49;14.35;13.71;11.29;0.77
60286;SPS30;46141;52.382;5.270;2023-02-01T07:33:40;2.90;2.82;2.41;1.80;14.46;14.44;14.31;13.71;11.36;0.74
60286;SPS30;46141;52.382;5.270;2023-02-01T07:36:07;3.06;2.97;2.52;1.85;14.92;14.90;14.76;14.11;11.64;0.73
60286;SPS30;46141;52.382;5.270;2023-02-01T07:38:40;3.05;2.96;2.52;1.87;15.03;15.01;14.88;14.24;11.77;0.73
60286;SPS30;46141;52.382;5.270;2023-02-01T07:41:07;3.23;3.13;2.64;1.92;15.45;15.43;15.28;14.57;11.97;0.76
60286;SPS30;46141;52.382;5.270;2023-02-01T07:43:34;3.17;3.08;2.61;1.92;15.41;15.39;15.25;14.56;12.00;0.74
60286;SPS30;46141;52.382;5.270;2023-02-01T07:46:01;3.06;2.97;2.53;1.87;15.05;15.03;14.90;14.25;11.78;0.74
60286;SPS30;46141;52.382;5.270;2023-02-01T07:48:29;3.14;3.04;2.57;1.87;15.06;15.04;14.89;14.21;11.68;0.76
60286;SPS30;46141;52.382;5.270;2023-02-01T07:51:03;2.99;2.90;2.46;1.80;14.51;14.49;14.36;13.72;11.30;0.76
60286;SPS30;46141;52.382;5.270;2023-02-01T07:53:34;3.02;2.92;2.45;1.75;14.13;14.10;13.96;13.27;10.85;0.78
60286;SPS30;46141;52.382;5.270;2023-02-01T07:56:00;3.13;3.02;2.51;1.77;14.26;14.23;14.08;13.34;10.84;0.79
60286;SPS30;46141;52.382;5.270;2023-02-01T07:58:26;3.18;3.08;2.60;1.89;15.21;15.19;15.04;14.34;11.78;0.76
60286;SPS30;46141;52.382;5.270;2023-02-01T08:00:52;2.95;2.87;2.44;1.82;14.62;14.59;14.47;13.85;11.46;0.75
60286;SPS30;46141;52.382;5.270;2023-02-01T08:03:37;2.89;2.81;2.40;1.80;14.47;14.45;14.32;13.73;11.38;0.75
60286;SPS30;46141;52.382;5.270;2023-02-01T08:06:03;2.88;2.81;2.42;1.84;14.77;14.75;14.63;14.07;11.71;0.73
60286;SPS30;46141;52.382;5.270;2023-02-01T08:08:29;2.76;2.69;2.33;1.79;14.38;14.37;14.26;13.73;11.47;0.72
60286;SPS30;46141;52.382;5.270;2023-02-01T08:10:59;2.36;2.31;2.06;1.65;13.23;13.22;13.14;12.76;10.79;0.69
60286;SPS30;46141;52.382;5.270;2023-02-01T08:13:27;2.26;2.21;1.97;1.59;12.74;12.73;12.65;12.30;10.41;0.69
60286;SPS30;46141;52.382;5.270;2023-02-01T08:15:57;2.26;2.22;1.98;1.60;12.83;12.82;12.74;12.39;10.50;0.70
60286;SPS30;46141;52.382;5.270;2023-02-01T08:18:27;2.54;2.48;2.21;1.77;14.23;14.21;14.13;13.72;11.61;0.70
60286;SPS30;46141;52.382;5.270;2023-02-01T08:20:53;2.44;2.39;2.12;1.69;13.60;13.59;13.51;13.11;11.08;0.69
60286;SPS30;46141;52.382;5.270;2023-02-01T08:23:19;2.61;2.54;2.22;1.73;13.86;13.84;13.74;13.27;11.12;0.71
60286;SPS30;46141;52.382;5.270;2023-02-01T08:25:46;2.55;2.48;2.15;1.65;13.25;13.24;13.14;12.65;10.56;0.71
60286;SPS30;46141;52.382;5.270;2023-02-01T08:28:12;2.80;2.74;2.40;1.88;15.09;15.07;14.97;14.47;12.16;0.71
60286;SPS30;46141;52.382;5.270;2023-02-01T08:30:38;2.19;2.14;1.89;1.49;11.93;11.92;11.84;11.47;9.65;0.71
60286;SPS30;46141;52.382;5.270;2023-02-01T08:33:04;2.18;2.13;1.89;1.50;12.06;12.05;11.97;11.61;9.80;0.71
60286;SPS30;46141;52.382;5.270;2023-02-01T08:35:36;2.47;2.41;2.13;1.68;13.51;13.50;13.41;13.00;10.95;0.71
60286;SPS30;46141;52.382;5.270;2023-02-01T08:38:03;2.00;1.96;1.73;1.37;11.01;11.00;10.93;10.59;8.93;0.71
60286;SPS30;46141;52.382;5.270;2023-02-01T08:40:29;2.21;2.16;1.91;1.52;12.21;12.20;12.12;11.76;9.92;0.70
60286;SPS30;46141;52.382;5.270;2023-02-01T08:42:56;2.19;2.14;1.88;1.47;11.83;11.81;11.73;11.35;9.54;0.71
60286;SPS30;46141;52.382;5.270;2023-02-01T08:45:23;2.16;2.11;1.85;1.44;11.53;11.52;11.44;11.05;9.26;0.72
60286;SPS30;46141;52.382;5.270;2023-02-01T08:47:52;2.20;2.15;1.89;1.48;11.90;11.89;11.81;11.42;9.60;0.71
60286;SPS30;46141;52.382;5.270;2023-02-01T08:50:18;2.27;2.21;1.94;1.51;12.13;12.11;12.03;11.62;9.76;0.72
60286;SPS30;46141;52.382;5.270;2023-02-01T08:52:48;1.97;1.93;1.70;1.35;10.81;10.80;10.73;10.39;8.76;0.72
60286;SPS30;46141;52.382;5.270;2023-02-01T08:55:14;1.96;1.92;1.71;1.38;11.06;11.05;10.98;10.67;9.03;0.71
60286;SPS30;46141;52.382;5.270;2023-02-01T08:57:41;1.96;1.92;1.72;1.40;11.25;11.24;11.18;10.89;9.25;0.70
60286;SPS30;46141;52.382;5.270;2023-02-01T09:00:09;1.81;1.77;1.58;1.28;10.27;10.26;10.20;9.92;8.41;0.71
60286;SPS30;46141;52.382;5.270;2023-02-01T09:02:38;2.14;2.09;1.86;1.49;11.92;11.91;11.84;11.49;9.71;0.72
60286;SPS30;46141;52.382;5.270;2023-02-01T09:05:04;1.90;1.86;1.65;1.31;10.53;10.52;10.45;10.14;8.56;0.73
60286;SPS30;46141;52.382;5.270;2023-02-01T09:07:31;1.82;1.78;1.56;1.22;9.78;9.77;9.70;9.38;7.88;0.73
60286;SPS30;46141;52.382;5.270;2023-02-01T09:09:57;2.06;2.01;1.74;1.34;10.74;10.73;10.65;10.25;8.56;0.74
60286;SPS30;46141;52.382;5.270;2023-02-01T09:12:26;2.08;2.03;1.76;1.35;10.83;10.81;10.73;10.33;8.63;0.74
60286;SPS30;46141;52.382;5.270;2023-02-01T09:14:53;1.98;1.93;1.68;1.30;10.45;10.44;10.36;10.00;8.37;0.73
60286;SPS30;46141;52.382;5.270;2023-02-01T09:17:20;1.86;1.82;1.60;1.25;10.04;10.03;9.96;9.63;8.10;0.72
60286;SPS30;46141;52.382;5.270;2023-02-01T09:19:46;2.12;2.07;1.80;1.38;11.08;11.06;10.98;10.58;8.84;0.73
60286;SPS30;46141;52.382;5.270;2023-02-01T09:22:14;2.24;2.18;1.88;1.43;11.46;11.45;11.36;10.92;9.09;0.73
60286;SPS30;46141;52.382;5.270;2023-02-01T09:24:40;1.98;1.93;1.67;1.27;10.22;10.21;10.13;9.75;8.12;0.74
60286;SPS30;46141;52.382;5.270;2023-02-01T09:27:06;2.09;2.04;1.76;1.35;10.82;10.81;10.72;10.32;8.60;0.75
60286;SPS30;46141;52.382;5.270;2023-02-01T09:29:31;2.29;2.23;1.93;1.48;11.87;11.85;11.76;11.33;9.45;0.74
60286;SPS30;46141;52.382;5.270;2023-02-01T10:05:43;1.47;1.44;1.28;1.03;8.29;8.28;8.23;8.00;6.78;0.68
60286;SPS30;46141;52.382;5.270;2023-02-01T10:11:13;1.79;1.74;1.53;1.19;9.56;9.55;9.48;9.16;7.69;0.72
60286;SPS30;46141;52.382;5.270;2023-02-01T10:27:14;1.61;1.58;1.42;1.16;9.27;9.26;9.21;8.97;7.62;0.70
60286;SPS30;46141;52.382;5.270;2023-02-01T10:29:57;1.45;1.42;1.28;1.05;8.46;8.45;8.41;8.20;6.98;0.68
60286;SPS30;46141;52.382;5.270;2023-02-01T10:32:30;1.62;1.60;1.47;1.24;9.91;9.90;9.86;9.66;8.28;0.67
60286;SPS30;46141;52.382;5.270;2023-02-01T10:35:00;1.54;1.51;1.38;1.15;9.19;9.19;9.14;8.94;7.64;0.67
60286;SPS30;46141;52.382;5.270;2023-02-01T10:37:34;1.55;1.52;1.37;1.12;9.00;8.99;8.95;8.73;7.43;0.68
60286;SPS30;46141;52.382;5.270;2023-02-01T10:40:02;1.64;1.61;1.46;1.21;9.68;9.67;9.62;9.39;8.01;0.67
60286;SPS30;46141;52.382;5.270;2023-02-01T10:42:38;1.45;1.43;1.29;1.06;8.46;8.45;8.41;8.20;6.98;0.68
60286;SPS30;46141;52.382;5.270;2023-02-01T10:45:05;1.63;1.59;1.42;1.14;9.14;9.13;9.08;8.82;7.46;0.70
60286;SPS30;46141;52.382;5.270;2023-02-01T10:47:31;1.69;1.65;1.47;1.17;9.36;9.35;9.29;9.01;7.61;0.70
60286;SPS30;46141;52.382;5.270;2023-02-01T10:52:48;1.67;1.63;1.44;1.15;9.20;9.19;9.13;8.86;7.47;0.70
60286;SPS30;46141;52.382;5.270;2023-02-01T10:55:33;1.65;1.62;1.44;1.16;9.34;9.33;9.28;9.02;7.64;0.69
60286;SPS30;46141;52.382;5.270;2023-02-01T11:00:53;1.28;1.25;1.12;0.91;7.33;7.32;7.28;7.09;6.02;0.69
60286;SPS30;46141;52.382;5.270;2023-02-01T11:11:33;1.74;1.69;1.46;1.11;8.94;8.93;8.86;8.52;7.10;0.73
60286;SPS30;46141;52.382;5.270;2023-02-01T11:14:20;1.80;1.75;1.51;1.14;9.17;9.16;9.09;8.73;7.27;0.74
60286;SPS30;46141;52.382;5.270;2023-02-01T11:19:45;1.46;1.42;1.26;1.00;8.02;8.01;7.96;7.72;6.51;0.71
60286;SPS30;46141;52.382;5.270;2023-02-01T11:22:21;1.80;1.76;1.57;1.26;10.09;10.08;10.02;9.73;8.23;0.71